Flight Track Log - Related Links

Times and Time Zones

All times are in EDT time to prevent confusion due to time zone crossing. See the SWA4108 flight status page for this flight to view local times or setup timezone preferences in your user account.

Time Position Orientation Groundspeed Altitude Reporting Facility
EDT Latitude Longitude Course Direction KTS MPH feet Rate Location/Type
Fri 08:50:15 AM 39.0875 -76.6986 153° Southeast 234 269 7,700  Level Washington Center
Fri 08:51:16 AM 39.0297 -76.6364 140° Southeast 252 290 9,000 1,537 Climbing Washington Center
Fri 08:52:16 AM 39.0033 -76.5478 111° Southeast 258 297 10,800 2,132 Climbing Washington Center
Fri 08:53:17 AM 39.0356 -76.4386 69° East 259 298 13,300 2,876 Climbing Washington Center
Fri 08:54:17 AM 39.0694 -76.3189 70° East 304 350 16,600 2,390 Climbing Washington Center
Fri 08:55:15 AM 39.1036 -76.1881 71° East 347 399 18,000 712 Climbing Washington Center
Fri 08:56:15 AM 39.1042 -76.0569 90° East 357 411 18,000 694 Level Washington Center
Fri 08:57:16 AM 39.0650 -75.9258 111° Southeast 370 426 19,400 1,934 Climbing Washington Center
Fri 08:58:16 AM 39.0986 -75.8003 71° East 355 409 21,900 1,736 Climbing Washington Center
Fri 08:59:17 AM 39.1906 -75.7147 36° Northeast 351 404 22,900 1,765 Climbing Washington Center
Fri 09:00:15 AM 39.2842 -75.6317 34° Northeast 372 428 25,400 2,319 Climbing Washington Center
Fri 09:01:16 AM 39.3781 -75.5458 35° Northeast 395 455 27,500 1,869 Climbing Washington Center
Fri 09:02:17 AM 39.4758 -75.4544 36° Northeast 414 476 29,200 1,815 Climbing Washington Center
Fri 09:03:15 AM 39.5778 -75.3600 36° Northeast 436 502 31,100 2,034 Climbing Washington Center
Fri 09:04:15 AM 39.6819 -75.2761 32° Northeast 441 507 33,200 2,057 Climbing Washington Center
Fri 09:05:00 AM 39.7625 -75.2294 24° Northeast 437 503 34,700 1,019 Climbing New York Center
Fri 09:06:01 AM 39.8803 -75.1478 28° Northeast 447 514 35,000 149 Climbing New York Center
Fri 09:07:01 AM 39.9911 -75.0817 25° Northeast 440 506 35,000 550 Level New York Center
Fri 09:08:01 AM 40.1000 -75.0094 27° Northeast 434 499 36,100 1,000 Climbing New York Center
Fri 09:09:01 AM 40.2086 -74.9400 26° Northeast 434 499 37,000 446 Climbing New York Center
Fri 09:10:02 AM 40.3192 -74.8786 23° Northeast 434 499 37,000  Level New York Center
Fri 09:11:41 AM 40.4958 -74.8033 18° North 415 478 37,000  Level Boston Center
Fri 09:12:42 AM 40.6072 -74.7556 18° North 415 478 37,000  Level Boston Center
Fri 09:13:43 AM 40.7228 -74.7075 17° North 415 478 37,000  Level Boston Center
Fri 09:14:40 AM 40.8364 -74.6539 20° North 426 490 37,000  Level Boston Center
Fri 09:15:40 AM 40.9500 -74.6056 18° North 426 490 37,000  Level Boston Center
Fri 09:16:40 AM 41.0633 -74.5572 18° North 426 490 37,000  Level Boston Center
Fri 09:17:40 AM 41.1789 -74.5086 18° North 431 496 37,000  Level Boston Center
Fri 09:18:41 AM 41.3069 -74.4544 18° North 431 496 37,000  Level Boston Center
Fri 09:19:41 AM 41.4247 -74.4031 18° North 431 496 37,000  Level Boston Center
Fri 09:20:41 AM 41.5400 -74.3539 18° North 431 496 37,000 -347 Level Boston Center
Fri 09:21:42 AM 41.6536 -74.3017 19° North 431 496 36,300 -857 Descending Boston Center
Fri 09:22:40 AM 41.7669 -74.2519 18° North 431 496 35,300 -1,068 Descending Boston Center
Fri 09:23:40 AM 41.8781 -74.2022 18° North 419 482 34,200 -1,759 Descending Boston Center
Fri 09:24:53 AM 42.0167 -74.1392 19° North 424 488 31,400 -2,328 Descending Boston Center
Fri 09:25:54 AM 42.1278 -74.0917 18° North 424 488 29,000 -2,182 Descending Boston Center
Fri 09:26:54 AM 42.2203 -74.0492 19° North 429 494 27,000 -2,000 Descending Boston Center
Fri 09:27:54 AM 42.3425 -73.9456 32° Northeast 420 483 25,000 -1,627 Descending Boston Center
Fri 09:28:52 AM 42.3842 -73.7892 70° East 405 466 23,800 -1,068 Descending Boston Center
Fri 09:29:52 AM 42.4167 -73.6719 69° East 405 466 22,900 -1,091 Descending Boston Center
Fri 09:30:53 AM 42.4619 -73.5122 69° East 394 453 21,600 -1,140 Descending Boston Center
Fri 09:31:53 AM 42.4986 -73.3861 68° East 384 442 20,600 -992 Descending Boston Center
Fri 09:32:54 AM 42.5350 -73.2458 71° East 383 441 19,600 -793 Descending Boston Center
Fri 09:33:54 AM 42.5672 -73.1194 71° East 357 411 19,000 -305 Descending Boston Center
Fri 09:34:52 AM 42.6033 -72.9931 69° East 357 411 19,000  Level Boston Center
Fri 09:35:52 AM 42.6372 -72.8803 68° East 357 411 19,000  Level Boston Center
Fri 09:36:52 AM 42.6731 -72.7508 69° East 357 411 19,000 -451 Level Boston Center
Fri 09:38:05 AM 42.7067 -72.6236 70° East 352 405 18,000 -992 Descending Boston Center
Fri 09:39:05 AM 42.7483 -72.4711 70° East 352 405 16,800 -1,587 Descending Boston Center
Fri 09:40:06 AM 42.7817 -72.3467 70° East 347 399 14,800 -2,218 Descending Boston Center
Fri 09:41:04 AM 42.7983 -72.2136 80° East 342 394 12,400 -2,118 Descending Boston Center
Fri 09:42:05 AM 42.8083 -72.0978 83° East 334 384 10,600 -1,339 Descending Boston Center
Fri 09:43:05 AM 42.8183 -71.9731 84° East 314 361 9,700 -1,100 Descending Boston Center
Fri 09:44:05 AM 42.8264 -71.8797 83° East 285 328 8,400 -1,173 Descending Boston Center
Fri 09:45:18 AM 42.8361 -71.7661 83° East 274 315 7,100 -1,669 Descending Boston Center
Fri 09:46:18 AM 42.8125 -71.6675 108° East 238 274 4,700 -2,085 Descending Boston Center
Fri 09:47:16 AM 42.8142 -71.5881 88° East 224 258 3,000 -1,311 Descending Boston Center
Fri 09:48:17 AM 42.8553 -71.5422 39° Northeast 185 213 2,100 -793 Descending Boston Center
Fri 09:49:17 AM 42.8883 -71.4992 44° Northeast 168 193 1,400 -694 Descending Boston Center
Fri 09:50:18 AM 42.9153 -71.4650 43° Northeast 133 153 700 -496 Descending Boston Center
Fri 09:51:18 AM 42.9400 -71.4361 41° Northeast 133 153 400 9,305 Descending Boston Center
Fri 09:52:16 AM 42.9667 -71.4072 38° Northeast 133 153 19,000 9,458 Climbing Boston Center
Fri 09:53:16 AM 42.9914 -71.3786 40° Northeast 133 153 19,000  Level Boston Center
Fri 09:54:16 AM 43.0183 -71.3497 38° Northeast 133 153 19,000  Level Boston Center
Fri 09:55:17 AM 43.0286 -71.3381 40° Northeast 133 153 19,000  Level Boston Center
Fri 09:57:00 AM 42.9328 -71.4358 316° Northwest  Level Estimated
Fri 10:04:00 AM 42.9328 -71.4358 316° Northwest  Level Estimated
Fri 10:05:00 AM 42.9328 -71.4358 316° Northwest  Level Estimated
Fri 10:06:00 AM 42.9328 -71.4358 316° Northwest  Level Estimated
Fri 10:07:00 AM 42.9328 -71.4358 316° Northwest  Level Estimated
Fri 10:08:00 AM 42.9328 -71.4358 316° Northwest  Level Estimated

Login

Don't have an account? Register now (free) for customized features, flight alerts, and more!